sensor_id;sensor_type;location;lat;lon;timestamp;temperature;humidity
63260;DHT22;49390;51.380;0.098;2022-09-11T00:01:53;15.60;99.90
63260;DHT22;49390;51.380;0.098;2022-09-11T00:04:22;15.60;99.90
63260;DHT22;49390;51.380;0.098;2022-09-11T00:06:54;15.60;99.90
63260;DHT22;49390;51.380;0.098;2022-09-11T00:09:23;15.60;99.90
63260;DHT22;49390;51.380;0.098;2022-09-11T00:11:51;15.60;99.90
63260;DHT22;49390;51.380;0.098;2022-09-11T00:14:19;15.50;99.90
63260;DHT22;49390;51.380;0.098;2022-09-11T00:16:47;15.50;99.90
63260;DHT22;49390;51.380;0.098;2022-09-11T00:19:21;15.50;99.90
63260;DHT22;49390;51.380;0.098;2022-09-11T00:21:50;15.40;99.90
63260;DHT22;49390;51.380;0.098;2022-09-11T00:24:20;15.40;99.90
63260;DHT22;49390;51.380;0.098;2022-09-11T00:26:54;15.40;99.90
63260;DHT22;49390;51.380;0.098;2022-09-11T00:29:23;15.40;99.90
63260;DHT22;49390;51.380;0.098;2022-09-11T00:31:53;15.30;99.90
63260;DHT22;49390;51.380;0.098;2022-09-11T00:34:23;15.30;99.90
63260;DHT22;49390;51.380;0.098;2022-09-11T00:36:51;15.30;99.90
63260;DHT22;49390;51.380;0.098;2022-09-11T00:39:23;15.30;99.90
63260;DHT22;49390;51.380;0.098;2022-09-11T00:41:51;15.30;99.90
63260;DHT22;49390;51.380;0.098;2022-09-11T00:46:55;15.30;99.90
63260;DHT22;49390;51.380;0.098;2022-09-11T00:49:31;15.30;99.90
63260;DHT22;49390;51.380;0.098;2022-09-11T00:54:59;15.20;99.90
63260;DHT22;49390;51.380;0.098;2022-09-11T00:57:33;15.10;99.90
63260;DHT22;49390;51.380;0.098;2022-09-11T01:00:04;15.10;99.90
63260;DHT22;49390;51.380;0.098;2022-09-11T01:02:37;15.10;99.90
63260;DHT22;49390;51.380;0.098;2022-09-11T01:05:06;15.10;99.90
63260;DHT22;49390;51.380;0.098;2022-09-11T01:07:35;15.00;99.90
63260;DHT22;49390;51.380;0.098;2022-09-11T01:10:05;15.00;99.90
63260;DHT22;49390;51.380;0.098;2022-09-11T01:18:13;15.00;99.90
63260;DHT22;49390;51.380;0.098;2022-09-11T01:22:05;14.90;99.90
63260;DHT22;49390;51.380;0.098;2022-09-11T01:26:59;14.90;99.90
63260;DHT22;49390;51.380;0.098;2022-09-11T01:29:55;14.90;99.90
63260;DHT22;49390;51.380;0.098;2022-09-11T01:35:02;14.70;99.90
63260;DHT22;49390;51.380;0.098;2022-09-11T01:37:49;14.80;99.90
63260;DHT22;49390;51.380;0.098;2022-09-11T01:40:44;14.70;99.90
63260;DHT22;49390;51.380;0.098;2022-09-11T01:43:24;14.70;99.90
63260;DHT22;49390;51.380;0.098;2022-09-11T01:46:01;14.70;99.90
63260;DHT22;49390;51.380;0.098;2022-09-11T01:48:44;14.70;99.90
63260;DHT22;49390;51.380;0.098;2022-09-11T01:51:17;14.70;99.90
63260;DHT22;49390;51.380;0.098;2022-09-11T01:53:49;14.60;99.90
63260;DHT22;49390;51.380;0.098;2022-09-11T01:56:30;14.60;99.90
63260;DHT22;49390;51.380;0.098;2022-09-11T01:59:05;14.60;99.90
63260;DHT22;49390;51.380;0.098;2022-09-11T02:01:41;14.60;99.90
63260;DHT22;49390;51.380;0.098;2022-09-11T02:04:21;14.60;99.90
63260;DHT22;49390;51.380;0.098;2022-09-11T02:06:57;14.60;99.90
63260;DHT22;49390;51.380;0.098;2022-09-11T02:09:36;14.50;99.90
63260;DHT22;49390;51.380;0.098;2022-09-11T02:12:08;14.50;99.90
63260;DHT22;49390;51.380;0.098;2022-09-11T02:14:47;14.50;99.90
63260;DHT22;49390;51.380;0.098;2022-09-11T02:17:44;14.40;99.90
63260;DHT22;49390;51.380;0.098;2022-09-11T02:20:16;14.40;99.90
63260;DHT22;49390;51.380;0.098;2022-09-11T02:22:45;14.40;99.90
63260;DHT22;49390;51.380;0.098;2022-09-11T02:25:14;14.40;99.90
63260;DHT22;49390;51.380;0.098;2022-09-11T02:27:45;14.40;99.90
63260;DHT22;49390;51.380;0.098;2022-09-11T02:30:17;14.40;99.90
63260;DHT22;49390;51.380;0.098;2022-09-11T02:32:54;14.40;99.90
63260;DHT22;49390;51.380;0.098;2022-09-11T02:35:29;14.40;99.90
63260;DHT22;49390;51.380;0.098;2022-09-11T02:38:24;14.40;99.90
63260;DHT22;49390;51.380;0.098;2022-09-11T02:41:10;14.30;99.90
63260;DHT22;49390;51.380;0.098;2022-09-11T02:44:05;14.30;99.90
63260;DHT22;49390;51.380;0.098;2022-09-11T02:52:35;14.30;99.90
63260;DHT22;49390;51.380;0.098;2022-09-11T02:58:08;14.30;99.90
63260;DHT22;49390;51.380;0.098;2022-09-11T03:00:39;14.30;99.90
63260;DHT22;49390;51.380;0.098;2022-09-11T03:03:10;14.30;99.90
63260;DHT22;49390;51.380;0.098;2022-09-11T03:05:39;14.30;99.90
63260;DHT22;49390;51.380;0.098;2022-09-11T03:08:08;14.20;99.90
63260;DHT22;49390;51.380;0.098;2022-09-11T03:10:39;14.20;99.90
63260;DHT22;49390;51.380;0.098;2022-09-11T03:13:12;14.20;99.90
63260;DHT22;49390;51.380;0.098;2022-09-11T03:15:44;14.20;99.90
63260;DHT22;49390;51.380;0.098;2022-09-11T03:18:13;14.20;99.90
63260;DHT22;49390;51.380;0.098;2022-09-11T03:20:44;14.20;99.90
63260;DHT22;49390;51.380;0.098;2022-09-11T03:23:17;14.20;99.90
63260;DHT22;49390;51.380;0.098;2022-09-11T03:25:49;14.10;99.90
63260;DHT22;49390;51.380;0.098;2022-09-11T03:28:17;14.10;99.90
63260;DHT22;49390;51.380;0.098;2022-09-11T03:30:50;14.10;99.90
63260;DHT22;49390;51.380;0.098;2022-09-11T03:33:24;14.10;99.90
63260;DHT22;49390;51.380;0.098;2022-09-11T03:35:55;14.20;99.90
63260;DHT22;49390;51.380;0.098;2022-09-11T03:38:25;14.20;99.90
63260;DHT22;49390;51.380;0.098;2022-09-11T03:40:54;14.20;99.90
63260;DHT22;49390;51.380;0.098;2022-09-11T03:43:31;14.30;99.90
63260;DHT22;49390;51.380;0.098;2022-09-11T03:46:00;14.30;99.90
63260;DHT22;49390;51.380;0.098;2022-09-11T03:48:30;14.30;99.90
63260;DHT22;49390;51.380;0.098;2022-09-11T03:51:02;14.40;99.90
63260;DHT22;49390;51.380;0.098;2022-09-11T03:53:32;14.40;99.90
63260;DHT22;49390;51.380;0.098;2022-09-11T03:56:03;14.40;99.90
63260;DHT22;49390;51.380;0.098;2022-09-11T03:58:42;14.40;99.90
63260;DHT22;49390;51.380;0.098;2022-09-11T04:01:13;14.40;99.90
63260;DHT22;49390;51.380;0.098;2022-09-11T04:03:43;14.40;99.90
63260;DHT22;49390;51.380;0.098;2022-09-11T04:06:18;14.50;99.90
63260;DHT22;49390;51.380;0.098;2022-09-11T04:08:49;14.50;99.90
63260;DHT22;49390;51.380;0.098;2022-09-11T04:11:19;14.50;99.90
63260;DHT22;49390;51.380;0.098;2022-09-11T04:13:53;14.50;99.90
63260;DHT22;49390;51.380;0.098;2022-09-11T04:16:29;14.50;99.90
63260;DHT22;49390;51.380;0.098;2022-09-11T04:19:00;14.50;99.90
63260;DHT22;49390;51.380;0.098;2022-09-11T04:21:30;14.50;99.90
63260;DHT22;49390;51.380;0.098;2022-09-11T04:23:59;14.40;99.90
63260;DHT22;49390;51.380;0.098;2022-09-11T04:28:46;14.40;99.90
63260;DHT22;49390;51.380;0.098;2022-09-11T04:31:16;14.40;99.90
63260;DHT22;49390;51.380;0.098;2022-09-11T04:33:46;14.50;99.90
63260;DHT22;49390;51.380;0.098;2022-09-11T04:36:18;14.50;99.90
63260;DHT22;49390;51.380;0.098;2022-09-11T04:38:47;14.50;99.90
63260;DHT22;49390;51.380;0.098;2022-09-11T04:41:16;14.50;99.90
63260;DHT22;49390;51.380;0.098;2022-09-11T04:43:44;14.50;99.90
63260;DHT22;49390;51.380;0.098;2022-09-11T04:46:16;14.50;99.90
63260;DHT22;49390;51.380;0.098;2022-09-11T04:48:47;14.60;99.90
63260;DHT22;49390;51.380;0.098;2022-09-11T04:51:23;14.60;99.90
63260;DHT22;49390;51.380;0.098;2022-09-11T04:54:03;14.60;99.90
63260;DHT22;49390;51.380;0.098;2022-09-11T04:56:37;14.60;99.90
63260;DHT22;49390;51.380;0.098;2022-09-11T04:59:17;14.70;99.90
63260;DHT22;49390;51.380;0.098;2022-09-11T05:01:54;14.70;99.90
63260;DHT22;49390;51.380;0.098;2022-09-11T05:04:24;14.70;99.90
63260;DHT22;49390;51.380;0.098;2022-09-11T05:06:58;14.70;99.90
63260;DHT22;49390;51.380;0.098;2022-09-11T05:09:26;14.80;99.90
63260;DHT22;49390;51.380;0.098;2022-09-11T05:11:56;14.80;99.90
63260;DHT22;49390;51.380;0.098;2022-09-11T05:14:29;14.80;99.90
63260;DHT22;49390;51.380;0.098;2022-09-11T05:17:04;14.80;99.90
63260;DHT22;49390;51.380;0.098;2022-09-11T05:19:37;14.80;99.90
63260;DHT22;49390;51.380;0.098;2022-09-11T05:22:08;14.80;99.90
63260;DHT22;49390;51.380;0.098;2022-09-11T05:24:41;14.80;99.90
63260;DHT22;49390;51.380;0.098;2022-09-11T05:27:12;14.90;99.90
63260;DHT22;49390;51.380;0.098;2022-09-11T05:29:41;14.90;99.90
63260;DHT22;49390;51.380;0.098;2022-09-11T05:32:15;14.90;99.90
63260;DHT22;49390;51.380;0.098;2022-09-11T05:34:46;14.90;99.90
63260;DHT22;49390;51.380;0.098;2022-09-11T05:37:16;14.80;99.90
63260;DHT22;49390;51.380;0.098;2022-09-11T05:39:47;14.80;99.90
63260;DHT22;49390;51.380;0.098;2022-09-11T05:42:17;14.80;99.90
63260;DHT22;49390;51.380;0.098;2022-09-11T05:44:50;14.80;99.90
63260;DHT22;49390;51.380;0.098;2022-09-11T05:47:24;14.80;99.90
63260;DHT22;49390;51.380;0.098;2022-09-11T05:49:57;14.80;99.90
63260;DHT22;49390;51.380;0.098;2022-09-11T05:52:27;14.80;99.90
63260;DHT22;49390;51.380;0.098;2022-09-11T05:54:59;14.70;99.90
63260;DHT22;49390;51.380;0.098;2022-09-11T05:57:30;14.80;99.90
63260;DHT22;49390;51.380;0.098;2022-09-11T06:00:03;14.70;99.90
63260;DHT22;49390;51.380;0.098;2022-09-11T06:02:37;14.70;99.90
63260;DHT22;49390;51.380;0.098;2022-09-11T06:05:05;14.70;99.90
63260;DHT22;49390;51.380;0.098;2022-09-11T06:07:33;14.70;99.90
63260;DHT22;49390;51.380;0.098;2022-09-11T06:10:03;14.70;99.90
63260;DHT22;49390;51.380;0.098;2022-09-11T06:12:32;14.70;99.90
63260;DHT22;49390;51.380;0.098;2022-09-11T06:15:03;14.80;99.90
63260;DHT22;49390;51.380;0.098;2022-09-11T06:17:33;14.80;99.90
63260;DHT22;49390;51.380;0.098;2022-09-11T06:20:03;14.80;99.90
63260;DHT22;49390;51.380;0.098;2022-09-11T06:22:33;14.80;99.90
63260;DHT22;49390;51.380;0.098;2022-09-11T06:25:04;14.90;99.90
63260;DHT22;49390;51.380;0.098;2022-09-11T06:27:33;14.90;99.90
63260;DHT22;49390;51.380;0.098;2022-09-11T06:30:04;14.90;99.90
63260;DHT22;49390;51.380;0.098;2022-09-11T06:32:36;15.00;99.90
63260;DHT22;49390;51.380;0.098;2022-09-11T06:35:05;15.00;99.90
63260;DHT22;49390;51.380;0.098;2022-09-11T06:37:35;15.10;99.90
63260;DHT22;49390;51.380;0.098;2022-09-11T06:40:03;15.10;99.90
63260;DHT22;49390;51.380;0.098;2022-09-11T06:42:35;15.10;99.90
63260;DHT22;49390;51.380;0.098;2022-09-11T06:45:04;15.20;99.90
63260;DHT22;49390;51.380;0.098;2022-09-11T06:47:34;15.20;99.90
63260;DHT22;49390;51.380;0.098;2022-09-11T06:50:08;15.20;99.90
63260;DHT22;49390;51.380;0.098;2022-09-11T06:52:55;15.20;99.90
63260;DHT22;49390;51.380;0.098;2022-09-11T06:55:29;15.30;99.90
63260;DHT22;49390;51.380;0.098;2022-09-11T06:58:07;15.30;99.90
63260;DHT22;49390;51.380;0.098;2022-09-11T07:00:38;15.30;99.90
63260;DHT22;49390;51.380;0.098;2022-09-11T07:03:10;15.40;99.90
63260;DHT22;49390;51.380;0.098;2022-09-11T07:05:46;15.40;99.90
63260;DHT22;49390;51.380;0.098;2022-09-11T07:08:14;15.50;99.90
63260;DHT22;49390;51.380;0.098;2022-09-11T07:10:45;15.60;99.90
63260;DHT22;49390;51.380;0.098;2022-09-11T07:13:13;15.70;99.90
63260;DHT22;49390;51.380;0.098;2022-09-11T07:15:45;15.80;99.90
63260;DHT22;49390;51.380;0.098;2022-09-11T07:18:17;15.90;99.90
63260;DHT22;49390;51.380;0.098;2022-09-11T07:20:47;16.00;99.90
63260;DHT22;49390;51.380;0.098;2022-09-11T07:23:21;16.20;99.90
63260;DHT22;49390;51.380;0.098;2022-09-11T07:25:51;16.30;99.90
63260;DHT22;49390;51.380;0.098;2022-09-11T07:28:23;16.40;99.90
63260;DHT22;49390;51.380;0.098;2022-09-11T07:31:09;16.50;99.90
63260;DHT22;49390;51.380;0.098;2022-09-11T07:33:40;16.80;99.90
63260;DHT22;49390;51.380;0.098;2022-09-11T07:36:11;17.10;99.90
63260;DHT22;49390;51.380;0.098;2022-09-11T07:38:43;17.40;99.90
63260;DHT22;49390;51.380;0.098;2022-09-11T07:41:17;17.80;99.90
63260;DHT22;49390;51.380;0.098;2022-09-11T07:43:52;18.30;99.90
63260;DHT22;49390;51.380;0.098;2022-09-11T07:46:22;18.70;99.90
63260;DHT22;49390;51.380;0.098;2022-09-11T07:48:54;19.20;99.90
63260;DHT22;49390;51.380;0.098;2022-09-11T07:51:23;19.50;99.90
63260;DHT22;49390;51.380;0.098;2022-09-11T07:53:57;19.90;99.90
63260;DHT22;49390;51.380;0.098;2022-09-11T07:56:32;20.30;99.90
63260;DHT22;49390;51.380;0.098;2022-09-11T07:59:06;20.60;99.90
63260;DHT22;49390;51.380;0.098;2022-09-11T08:01:41;20.90;99.90
63260;DHT22;49390;51.380;0.098;2022-09-11T08:04:11;21.10;99.90
63260;DHT22;49390;51.380;0.098;2022-09-11T08:06:42;21.40;99.90
63260;DHT22;49390;51.380;0.098;2022-09-11T08:09:25;21.60;99.90
63260;DHT22;49390;51.380;0.098;2022-09-11T08:12:02;21.80;99.90
63260;DHT22;49390;51.380;0.098;2022-09-11T08:14:35;21.90;99.90
63260;DHT22;49390;51.380;0.098;2022-09-11T08:17:13;22.00;99.90
63260;DHT22;49390;51.380;0.098;2022-09-11T08:19:43;22.00;99.90
63260;DHT22;49390;51.380;0.098;2022-09-11T08:22:17;22.00;99.90
63260;DHT22;49390;51.380;0.098;2022-09-11T08:24:47;22.00;99.90
63260;DHT22;49390;51.380;0.098;2022-09-11T08:27:19;22.00;99.90
63260;DHT22;49390;51.380;0.098;2022-09-11T08:29:47;21.90;99.90
63260;DHT22;49390;51.380;0.098;2022-09-11T08:32:16;21.90;99.90
63260;DHT22;49390;51.380;0.098;2022-09-11T08:34:47;22.00;99.90
63260;DHT22;49390;51.380;0.098;2022-09-11T08:37:16;22.00;99.90
63260;DHT22;49390;51.380;0.098;2022-09-11T08:39:46;22.10;99.90
63260;DHT22;49390;51.380;0.098;2022-09-11T08:42:17;22.20;99.90
63260;DHT22;49390;51.380;0.098;2022-09-11T08:44:50;22.30;99.90
63260;DHT22;49390;51.380;0.098;2022-09-11T08:47:38;22.50;99.90
63260;DHT22;49390;51.380;0.098;2022-09-11T08:52:45;22.80;99.90
63260;DHT22;49390;51.380;0.098;2022-09-11T08:55:26;22.80;99.90
63260;DHT22;49390;51.380;0.098;2022-09-11T09:11:59;23.50;99.90
63260;DHT22;49390;51.380;0.098;2022-09-11T09:17:21;23.80;99.90
63260;DHT22;49390;51.380;0.098;2022-09-11T09:20:10;23.90;99.90
63260;DHT22;49390;51.380;0.098;2022-09-11T09:23:04;23.90;99.90
63260;DHT22;49390;51.380;0.098;2022-09-11T09:25:41;23.80;99.90
63260;DHT22;49390;51.380;0.098;2022-09-11T09:30:54;23.90;99.90
63260;DHT22;49390;51.380;0.098;2022-09-11T09:33:37;23.90;99.90
63260;DHT22;49390;51.380;0.098;2022-09-11T09:39:04;23.80;99.90
63260;DHT22;49390;51.380;0.098;2022-09-11T09:45:52;23.80;99.90
63260;DHT22;49390;51.380;0.098;2022-09-11T09:47:53;23.80;99.90
63260;DHT22;49390;51.380;0.098;2022-09-11T09:50:36;23.80;99.90
63260;DHT22;49390;51.380;0.098;2022-09-11T09:56:56;23.70;99.90
63260;DHT22;49390;51.380;0.098;2022-09-11T09:59:50;23.60;99.90
63260;DHT22;49390;51.380;0.098;2022-09-11T10:02:52;23.70;99.90
63260;DHT22;49390;51.380;0.098;2022-09-11T10:05:55;23.70;99.90
63260;DHT22;49390;51.380;0.098;2022-09-11T10:08:34;23.70;99.90
63260;DHT22;49390;51.380;0.098;2022-09-11T10:11:06;23.70;99.90
63260;DHT22;49390;51.380;0.098;2022-09-11T10:13:42;23.50;99.90
63260;DHT22;49390;51.380;0.098;2022-09-11T10:16:23;23.40;99.90
63260;DHT22;49390;51.380;0.098;2022-09-11T10:18:55;23.20;99.90
63260;DHT22;49390;51.380;0.098;2022-09-11T10:21:29;23.10;99.90
63260;DHT22;49390;51.380;0.098;2022-09-11T10:24:21;22.90;99.90
63260;DHT22;49390;51.380;0.098;2022-09-11T10:26:53;22.70;99.90
63260;DHT22;49390;51.380;0.098;2022-09-11T10:29:25;22.60;99.90
63260;DHT22;49390;51.380;0.098;2022-09-11T10:32:01;22.60;99.90
63260;DHT22;49390;51.380;0.098;2022-09-11T10:34:35;22.60;99.90
63260;DHT22;49390;51.380;0.098;2022-09-11T10:39:43;22.60;99.90
63260;DHT22;49390;51.380;0.098;2022-09-11T10:42:25;22.80;99.90
63260;DHT22;49390;51.380;0.098;2022-09-11T10:45:19;22.90;99.90
63260;DHT22;49390;51.380;0.098;2022-09-11T10:47:49;23.10;99.90
63260;DHT22;49390;51.380;0.098;2022-09-11T10:50:22;23.20;99.90
63260;DHT22;49390;51.380;0.098;2022-09-11T10:53:02;23.20;99.90
63260;DHT22;49390;51.380;0.098;2022-09-11T10:55:40;23.20;99.90
63260;DHT22;49390;51.380;0.098;2022-09-11T10:58:18;23.10;99.90
63260;DHT22;49390;51.380;0.098;2022-09-11T11:00:51;23.10;99.90
63260;DHT22;49390;51.380;0.098;2022-09-11T11:03:25;23.20;99.90
63260;DHT22;49390;51.380;0.098;2022-09-11T11:06:40;23.20;99.90
63260;DHT22;49390;51.380;0.098;2022-09-11T11:09:27;23.10;99.90
63260;DHT22;49390;51.380;0.098;2022-09-11T11:14:54;23.00;99.90
63260;DHT22;49390;51.380;0.098;2022-09-11T11:27:05;23.40;99.90
63260;DHT22;49390;51.380;0.098;2022-09-11T11:32:36;23.50;99.90
63260;DHT22;49390;51.380;0.098;2022-09-11T11:35:21;23.60;99.90
63260;DHT22;49390;51.380;0.098;2022-09-11T11:37:57;23.70;99.90
63260;DHT22;49390;51.380;0.098;2022-09-11T11:40:35;23.70;99.90
63260;DHT22;49390;51.380;0.098;2022-09-11T11:43:15;23.60;99.90
63260;DHT22;49390;51.380;0.098;2022-09-11T11:45:50;23.50;99.90
63260;DHT22;49390;51.380;0.098;2022-09-11T11:48:27;23.50;99.90
63260;DHT22;49390;51.380;0.098;2022-09-11T11:51:05;23.50;99.90
63260;DHT22;49390;51.380;0.098;2022-09-11T11:53:41;23.60;99.90
63260;DHT22;49390;51.380;0.098;2022-09-11T11:56:17;23.70;99.90
63260;DHT22;49390;51.380;0.098;2022-09-11T11:59:10;23.90;99.90
63260;DHT22;49390;51.380;0.098;2022-09-11T12:01:44;24.10;99.90
63260;DHT22;49390;51.380;0.098;2022-09-11T12:06:54;24.20;98.00
63260;DHT22;49390;51.380;0.098;2022-09-11T12:09:25;24.10;98.30
63260;DHT22;49390;51.380;0.098;2022-09-11T12:12:06;24.00;99.00
63260;DHT22;49390;51.380;0.098;2022-09-11T12:14:37;23.80;99.90
63260;DHT22;49390;51.380;0.098;2022-09-11T12:17:23;23.60;99.90
63260;DHT22;49390;51.380;0.098;2022-09-11T12:25:03;23.50;99.90
63260;DHT22;49390;51.380;0.098;2022-09-11T12:30:26;23.40;99.90
63260;DHT22;49390;51.380;0.098;2022-09-11T12:33:00;23.40;99.90
63260;DHT22;49390;51.380;0.098;2022-09-11T12:35:47;23.40;99.90
63260;DHT22;49390;51.380;0.098;2022-09-11T12:38:34;23.30;99.90
63260;DHT22;49390;51.380;0.098;2022-09-11T12:41:21;23.40;99.90
63260;DHT22;49390;51.380;0.098;2022-09-11T12:43:53;23.50;99.90
63260;DHT22;49390;51.380;0.098;2022-09-11T12:51:55;23.70;99.90
63260;DHT22;49390;51.380;0.098;2022-09-11T12:54:38;23.70;99.90
63260;DHT22;49390;51.380;0.098;2022-09-11T12:57:21;23.60;99.90
63260;DHT22;49390;51.380;0.098;2022-09-11T12:59:56;23.50;99.90
63260;DHT22;49390;51.380;0.098;2022-09-11T13:02:43;23.50;99.90
63260;DHT22;49390;51.380;0.098;2022-09-11T13:05:35;23.50;99.90
63260;DHT22;49390;51.380;0.098;2022-09-11T13:08:18;23.80;99.90
63260;DHT22;49390;51.380;0.098;2022-09-11T13:10:50;23.70;99.50
63260;DHT22;49390;51.380;0.098;2022-09-11T13:18:47;23.70;99.90
63260;DHT22;49390;51.380;0.098;2022-09-11T13:21:17;23.60;99.90
63260;DHT22;49390;51.380;0.098;2022-09-11T13:23:58;23.60;99.70
63260;DHT22;49390;51.380;0.098;2022-09-11T13:26:29;23.70;99.70
63260;DHT22;49390;51.380;0.098;2022-09-11T13:29:01;23.90;98.70
63260;DHT22;49390;51.380;0.098;2022-09-11T13:31:34;23.90;98.40
63260;DHT22;49390;51.380;0.098;2022-09-11T13:34:06;24.00;97.80
63260;DHT22;49390;51.380;0.098;2022-09-11T13:36:41;24.00;98.10
63260;DHT22;49390;51.380;0.098;2022-09-11T13:39:13;24.00;97.80
63260;DHT22;49390;51.380;0.098;2022-09-11T13:42:00;23.90;96.80
63260;DHT22;49390;51.380;0.098;2022-09-11T13:44:42;23.80;97.60
63260;DHT22;49390;51.380;0.098;2022-09-11T13:47:21;23.80;98.00
63260;DHT22;49390;51.380;0.098;2022-09-11T13:50:00;23.70;98.50
63260;DHT22;49390;51.380;0.098;2022-09-11T13:52:33;23.70;98.70
63260;DHT22;49390;51.380;0.098;2022-09-11T13:57:57;23.80;99.80
63260;DHT22;49390;51.380;0.098;2022-09-11T14:00:45;23.80;99.70
63260;DHT22;49390;51.380;0.098;2022-09-11T14:06:02;23.80;99.90
63260;DHT22;49390;51.380;0.098;2022-09-11T14:08:36;23.80;99.90
63260;DHT22;49390;51.380;0.098;2022-09-11T14:11:11;23.60;99.90
63260;DHT22;49390;51.380;0.098;2022-09-11T14:13:50;24.10;99.90
63260;DHT22;49390;51.380;0.098;2022-09-11T14:16:35;23.80;99.40
63260;DHT22;49390;51.380;0.098;2022-09-11T14:19:19;23.80;99.90
63260;DHT22;49390;51.380;0.098;2022-09-11T14:21:49;23.80;99.90
63260;DHT22;49390;51.380;0.098;2022-09-11T14:30:28;24.00;96.60
63260;DHT22;49390;51.380;0.098;2022-09-11T14:35:41;24.30;95.20
63260;DHT22;49390;51.380;0.098;2022-09-11T14:38:16;24.40;94.70
63260;DHT22;49390;51.380;0.098;2022-09-11T14:40:52;24.50;94.10
63260;DHT22;49390;51.380;0.098;2022-09-11T14:43:25;24.50;93.60
63260;DHT22;49390;51.380;0.098;2022-09-11T14:45:59;24.50;93.10
63260;DHT22;49390;51.380;0.098;2022-09-11T14:48:32;24.40;92.10
63260;DHT22;49390;51.380;0.098;2022-09-11T14:51:03;24.40;90.40
63260;DHT22;49390;51.380;0.098;2022-09-11T14:53:44;24.30;86.80
63260;DHT22;49390;51.380;0.098;2022-09-11T14:56:13;24.30;86.30
63260;DHT22;49390;51.380;0.098;2022-09-11T14:58:42;24.20;85.50
63260;DHT22;49390;51.380;0.098;2022-09-11T15:01:11;24.00;87.40
63260;DHT22;49390;51.380;0.098;2022-09-11T15:03:41;23.80;90.40
63260;DHT22;49390;51.380;0.098;2022-09-11T15:06:15;23.60;92.50
63260;DHT22;49390;51.380;0.098;2022-09-11T15:08:44;23.40;94.80
63260;DHT22;49390;51.380;0.098;2022-09-11T15:11:12;23.20;96.10
63260;DHT22;49390;51.380;0.098;2022-09-11T15:13:41;22.80;95.80
63260;DHT22;49390;51.380;0.098;2022-09-11T15:16:31;22.90;96.60
63260;DHT22;49390;51.380;0.098;2022-09-11T15:18:59;22.80;98.00
63260;DHT22;49390;51.380;0.098;2022-09-11T15:21:30;22.70;99.40
63260;DHT22;49390;51.380;0.098;2022-09-11T15:24:05;22.60;99.90
63260;DHT22;49390;51.380;0.098;2022-09-11T15:26:33;22.60;99.90
63260;DHT22;49390;51.380;0.098;2022-09-11T15:29:03;22.50;99.90
63260;DHT22;49390;51.380;0.098;2022-09-11T15:31:37;22.50;99.90
63260;DHT22;49390;51.380;0.098;2022-09-11T15:34:06;22.40;99.90
63260;DHT22;49390;51.380;0.098;2022-09-11T15:36:34;22.40;99.90
63260;DHT22;49390;51.380;0.098;2022-09-11T15:39:13;22.50;99.90
63260;DHT22;49390;51.380;0.098;2022-09-11T15:41:42;22.60;99.90
63260;DHT22;49390;51.380;0.098;2022-09-11T15:44:18;22.60;99.90
63260;DHT22;49390;51.380;0.098;2022-09-11T15:46:51;22.60;99.90
63260;DHT22;49390;51.380;0.098;2022-09-11T15:49:22;22.50;99.90
63260;DHT22;49390;51.380;0.098;2022-09-11T15:51:51;22.50;99.90
63260;DHT22;49390;51.380;0.098;2022-09-11T15:54:24;22.60;99.90
63260;DHT22;49390;51.380;0.098;2022-09-11T15:56:52;22.50;99.90
63260;DHT22;49390;51.380;0.098;2022-09-11T15:59:23;22.60;99.90
63260;DHT22;49390;51.380;0.098;2022-09-11T16:01:52;22.70;99.90
63260;DHT22;49390;51.380;0.098;2022-09-11T16:04:25;22.30;99.90
63260;DHT22;49390;51.380;0.098;2022-09-11T16:06:55;22.50;99.90
63260;DHT22;49390;51.380;0.098;2022-09-11T16:09:26;22.50;99.90
63260;DHT22;49390;51.380;0.098;2022-09-11T16:11:56;22.40;99.90
63260;DHT22;49390;51.380;0.098;2022-09-11T16:14:30;22.40;99.90
63260;DHT22;49390;51.380;0.098;2022-09-11T16:17:02;22.30;99.90
63260;DHT22;49390;51.380;0.098;2022-09-11T16:19:33;22.30;99.90
63260;DHT22;49390;51.380;0.098;2022-09-11T16:22:04;22.30;99.90
63260;DHT22;49390;51.380;0.098;2022-09-11T16:24:33;22.30;99.90
63260;DHT22;49390;51.380;0.098;2022-09-11T16:27:08;22.30;99.90
63260;DHT22;49390;51.380;0.098;2022-09-11T16:29:43;22.20;99.90
63260;DHT22;49390;51.380;0.098;2022-09-11T16:32:35;22.20;99.90
63260;DHT22;49390;51.380;0.098;2022-09-11T16:35:05;22.20;99.90
63260;DHT22;49390;51.380;0.098;2022-09-11T16:37:35;22.20;99.90
63260;DHT22;49390;51.380;0.098;2022-09-11T16:40:07;22.10;99.90
63260;DHT22;49390;51.380;0.098;2022-09-11T16:42:37;22.10;99.90
63260;DHT22;49390;51.380;0.098;2022-09-11T16:45:06;22.00;99.90
63260;DHT22;49390;51.380;0.098;2022-09-11T16:47:35;22.00;99.90
63260;DHT22;49390;51.380;0.098;2022-09-11T16:50:04;21.90;99.90
63260;DHT22;49390;51.380;0.098;2022-09-11T16:52:35;21.90;99.90
63260;DHT22;49390;51.380;0.098;2022-09-11T16:55:06;21.80;99.90
63260;DHT22;49390;51.380;0.098;2022-09-11T16:57:36;21.80;99.90
63260;DHT22;49390;51.380;0.098;2022-09-11T17:00:08;21.70;99.90
63260;DHT22;49390;51.380;0.098;2022-09-11T17:02:42;20.00;99.90
63260;DHT22;49390;51.380;0.098;2022-09-11T17:05:11;21.60;99.90
63260;DHT22;49390;51.380;0.098;2022-09-11T17:07:40;21.50;99.90
63260;DHT22;49390;51.380;0.098;2022-09-11T17:10:09;21.50;99.90
63260;DHT22;49390;51.380;0.098;2022-09-11T17:12:38;21.50;99.90
63260;DHT22;49390;51.380;0.098;2022-09-11T17:15:07;21.40;99.90
63260;DHT22;49390;51.380;0.098;2022-09-11T17:17:35;21.40;99.90
63260;DHT22;49390;51.380;0.098;2022-09-11T17:20:05;21.30;99.90
63260;DHT22;49390;51.380;0.098;2022-09-11T17:22:38;21.30;99.90
63260;DHT22;49390;51.380;0.098;2022-09-11T17:25:07;21.20;99.90
63260;DHT22;49390;51.380;0.098;2022-09-11T17:27:35;21.10;99.90
63260;DHT22;49390;51.380;0.098;2022-09-11T17:30:04;21.00;99.90
63260;DHT22;49390;51.380;0.098;2022-09-11T17:32:33;21.10;99.90
63260;DHT22;49390;51.380;0.098;2022-09-11T17:35:01;21.00;99.90
63260;DHT22;49390;51.380;0.098;2022-09-11T17:37:32;20.90;99.90
63260;DHT22;49390;51.380;0.098;2022-09-11T17:40:01;21.00;99.90
63260;DHT22;49390;51.380;0.098;2022-09-11T17:42:30;20.90;99.90
63260;DHT22;49390;51.380;0.098;2022-09-11T17:45:02;20.80;99.90
63260;DHT22;49390;51.380;0.098;2022-09-11T17:47:32;20.80;99.90
63260;DHT22;49390;51.380;0.098;2022-09-11T17:50:01;20.80;99.90
63260;DHT22;49390;51.380;0.098;2022-09-11T17:52:30;20.80;99.90
63260;DHT22;49390;51.380;0.098;2022-09-11T17:55:03;20.70;99.90
63260;DHT22;49390;51.380;0.098;2022-09-11T17:57:33;20.60;99.90
63260;DHT22;49390;51.380;0.098;2022-09-11T18:00:02;20.60;99.90
63260;DHT22;49390;51.380;0.098;2022-09-11T18:02:39;20.50;99.90
63260;DHT22;49390;51.380;0.098;2022-09-11T18:05:08;20.50;99.90
63260;DHT22;49390;51.380;0.098;2022-09-11T18:07:37;20.40;99.90